createdAt,value
2019-01-16T00:04:43.370Z,8.07
2019-01-16T00:10:17.732Z,8.50
2019-01-16T00:15:42.568Z,8.77
2019-01-16T00:20:53.556Z,9.87
2019-01-16T00:26:09.363Z,8.33
2019-01-16T00:31:30.595Z,8.57
2019-01-16T00:36:55.617Z,8.17
2019-01-16T00:42:24.023Z,9.30
2019-01-16T00:47:44.851Z,9.43
2019-01-16T00:53:05.428Z,8.40
2019-01-16T00:58:45.308Z,9.10
2019-01-16T01:04:13.443Z,7.27
2019-01-16T01:09:34.255Z,8.40
2019-01-16T01:14:58.653Z,7.33
2019-01-16T01:20:21.219Z,7.53
2019-01-16T01:25:41.474Z,7.17
2019-01-16T01:31:05.948Z,7.30
2019-01-16T01:36:28.510Z,5.87
2019-01-16T01:41:50.871Z,7.30
2019-01-16T01:47:01.640Z,7.00
2019-01-16T01:52:29.660Z,6.67
2019-01-16T01:57:58.955Z,6.97
2019-01-16T02:03:23.514Z,9.87
2019-01-16T02:08:44.396Z,6.70
2019-01-16T02:13:54.663Z,6.67
2019-01-16T02:19:09.749Z,7.00
2019-01-16T02:24:44.302Z,8.00
2019-01-16T02:30:05.540Z,6.67
2019-01-16T02:35:31.690Z,7.10
2019-01-16T02:41:02.637Z,7.00
2019-01-16T02:46:23.871Z,7.90
2019-01-16T02:52:03.622Z,7.90
2019-01-16T02:57:40.540Z,7.03
2019-01-16T03:02:55.063Z,7.50
2019-01-16T03:08:23.514Z,7.40
2019-01-16T03:13:39.830Z,9.40
2019-01-16T03:19:04.599Z,10.33
2019-01-16T03:24:27.247Z,9.40
2019-01-16T03:29:49.560Z,10.33
2019-01-16T03:35:10.597Z,9.30
2019-01-16T03:40:25.177Z,10.53
2019-01-16T03:45:35.459Z,11.17
2019-01-16T03:50:47.268Z,11.40
2019-01-16T03:56:06.853Z,10.67
2019-01-16T04:01:38.133Z,11.77
2019-01-16T04:07:07.138Z,11.90
2019-01-16T04:12:25.519Z,11.97
2019-01-16T04:17:46.345Z,13.90
2019-01-16T04:23:11.371Z,12.20
2019-01-16T04:28:32.043Z,11.07
2019-01-16T04:33:52.715Z,11.53
2019-01-16T04:39:06.872Z,10.80
2019-01-16T04:44:35.059Z,11.47
2019-01-16T04:49:48.512Z,11.10
2019-01-16T04:55:16.203Z,12.47
2019-01-16T05:00:36.268Z,11.00
2019-01-16T05:05:52.529Z,11.00
2019-01-16T05:11:02.835Z,13.17
2019-01-16T05:16:24.222Z,12.00
2019-01-16T05:21:55.399Z,13.90
2019-01-16T05:27:16.015Z,13.80
2019-01-16T05:32:37.438Z,13.60
2019-01-16T05:37:56.382Z,13.20
2019-01-16T05:43:13.141Z,12.83
2019-01-16T05:48:47.501Z,14.13
2019-01-16T05:54:10.266Z,13.33
2019-01-16T05:59:35.232Z,10.77
2019-01-16T06:04:52.417Z,12.17
2019-01-16T06:10:26.358Z,12.70
2019-01-16T06:15:43.183Z,12.73
2019-01-16T06:21:04.056Z,12.67
2019-01-16T06:26:15.300Z,14.50
2019-01-16T06:31:31.513Z,12.20
2019-01-16T06:36:46.455Z,14.43
2019-01-16T06:42:01.549Z,14.30
2019-01-16T06:47:32.547Z,13.50
2019-01-16T06:52:57.669Z,13.43
2019-01-16T06:58:13.425Z,13.73
2019-01-16T07:03:45.566Z,15.03
2019-01-16T07:08:56.767Z,12.63
2019-01-16T07:14:16.780Z,12.43
2019-01-16T07:19:33.284Z,13.13
2019-01-16T07:24:55.847Z,11.77
2019-01-16T07:30:07.867Z,11.47
2019-01-16T07:35:20.288Z,11.77
2019-01-16T07:40:51.355Z,11.43
2019-01-16T07:46:14.944Z,10.50
2019-01-16T07:51:46.209Z,9.80
2019-01-16T07:57:00.697Z,9.33
2019-01-16T08:02:23.864Z,10.07
2019-01-16T08:08:01.091Z,11.03
2019-01-16T08:13:35.713Z,10.20
2019-01-16T08:18:57.055Z,11.68
2019-01-16T08:24:15.721Z,10.40
2019-01-16T08:29:46.887Z,10.80
2019-01-16T08:34:59.822Z,11.40
2019-01-16T08:40:27.843Z,10.60
2019-01-16T08:45:41.982Z,9.70
2019-01-16T08:51:15.931Z,8.40
2019-01-16T08:56:42.273Z,8.10
2019-01-16T09:02:02.779Z,8.70
2019-01-16T09:07:25.361Z,8.30
2019-01-16T09:12:46.584Z,7.83
2019-01-16T09:17:57.015Z,9.23
2019-01-16T09:23:17.776Z,7.50
2019-01-16T09:28:42.906Z,8.53
2019-01-16T09:34:10.894Z,5.77
2019-01-16T09:39:36.174Z,6.60
2019-01-16T09:44:51.000Z,7.77
2019-01-16T09:50:28.017Z,6.50
2019-01-16T09:56:04.528Z,6.20
2019-01-16T10:01:24.897Z,5.93
2019-01-16T10:06:36.519Z,5.93
2019-01-16T10:11:56.011Z,5.73
2019-01-16T10:17:33.219Z,5.07
2019-01-16T10:22:47.383Z,5.60
2019-01-16T10:28:12.087Z,5.37
2019-01-16T10:33:32.683Z,4.77
2019-01-16T10:39:07.267Z,4.97
2019-01-16T10:44:35.446Z,4.60
2019-01-16T10:49:57.715Z,5.20
2019-01-16T10:55:09.657Z,5.40
2019-01-16T11:00:28.852Z,5.90
2019-01-16T11:05:50.972Z,5.50
2019-01-16T11:11:16.198Z,5.53
2019-01-16T11:16:30.254Z,5.33
2019-01-16T11:21:51.383Z,5.40
2019-01-16T11:27:22.957Z,6.10
2019-01-16T11:32:34.877Z,6.67
2019-01-16T11:37:50.986Z,6.87
2019-01-16T11:43:09.225Z,8.07
2019-01-16T11:48:25.011Z,7.77
2019-01-16T11:53:40.264Z,6.57
2019-01-16T11:59:01.172Z,6.70
2019-01-16T12:04:22.716Z,5.63
2019-01-16T12:09:43.742Z,6.10
2019-01-16T12:15:04.462Z,5.33
2019-01-16T12:20:20.476Z,5.87
2019-01-16T12:25:41.810Z,6.60
2019-01-16T12:31:10.511Z,6.50
2019-01-16T12:36:27.864Z,7.30
2019-01-16T12:41:43.557Z,8.50
2019-01-16T12:47:03.856Z,8.03
2019-01-16T12:52:22.333Z,9.47
2019-01-16T12:57:36.311Z,7.80
2019-01-16T13:02:48.413Z,10.20
2019-01-16T13:08:28.498Z,10.40
2019-01-16T13:13:59.356Z,9.80
2019-01-16T13:19:26.578Z,10.40
2019-01-16T13:24:46.586Z,11.00
2019-01-16T13:30:06.733Z,8.30
2019-01-16T13:35:25.511Z,8.07
2019-01-16T13:40:46.747Z,8.90
2019-01-16T13:46:05.826Z,7.37
2019-01-16T13:51:24.191Z,6.97
2019-01-16T13:56:46.343Z,7.97
2019-01-16T14:02:02.760Z,7.00
2019-01-16T14:07:21.749Z,7.90
2019-01-16T14:12:39.703Z,8.90
2019-01-16T14:18:00.928Z,8.37
2019-01-16T14:23:16.117Z,9.20
2019-01-16T14:28:40.506Z,11.37
2019-01-16T14:34:02.328Z,9.57
2019-01-16T14:39:25.205Z,12.33
2019-01-16T14:44:47.809Z,11.40
2019-01-16T14:49:58.906Z,10.60
2019-01-16T14:55:13.941Z,10.73
2019-01-16T15:00:48.032Z,11.50
2019-01-16T15:05:59.020Z,11.27
2019-01-16T15:11:19.936Z,13.20
2019-01-16T15:16:45.074Z,13.20
2019-01-16T15:21:59.432Z,12.63
2019-01-16T15:27:22.000Z,12.47
2019-01-16T15:32:42.541Z,11.87
2019-01-16T15:38:04.513Z,15.40
2019-01-16T15:43:23.550Z,15.40
2019-01-16T15:48:38.345Z,14.53
2019-01-16T15:53:59.229Z,15.80
2019-01-16T15:59:27.115Z,16.83
2019-01-16T16:04:49.703Z,17.73
2019-01-16T16:10:18.521Z,16.53
2019-01-16T16:15:42.825Z,17.17
2019-01-16T16:21:03.650Z,17.87
2019-01-16T16:26:20.070Z,18.70
2019-01-16T16:31:34.292Z,18.60
2019-01-16T16:36:55.480Z,18.97
2019-01-16T16:42:18.529Z,19.50
2019-01-16T16:47:40.100Z,19.00
2019-01-16T16:53:22.231Z,18.90
2019-01-16T16:59:04.643Z,17.20
2019-01-16T17:04:38.580Z,20.20
2019-01-16T17:10:11.588Z,21.47
2019-01-16T17:15:47.783Z,19.97
2019-01-16T17:21:03.394Z,19.17
2019-01-16T17:26:34.182Z,22.17
2019-01-16T17:31:59.296Z,20.70
2019-01-16T17:37:26.063Z,19.17
2019-01-16T17:42:50.508Z,21.10
2019-01-16T17:48:08.632Z,19.13
2019-01-16T17:53:29.324Z,19.13
2019-01-16T17:58:51.053Z,18.30
2019-01-16T18:04:06.772Z,18.17
2019-01-16T18:09:28.897Z,18.43
2019-01-16T18:14:48.292Z,18.20
2019-01-16T18:20:21.288Z,16.33
2019-01-16T18:25:43.661Z,19.27
2019-01-16T18:31:14.433Z,18.90
2019-01-16T18:36:45.985Z,18.07
2019-01-16T18:42:08.655Z,21.30
2019-01-16T18:47:26.512Z,22.93
2019-01-16T18:52:55.546Z,22.53
2019-01-16T18:58:42.035Z,26.00
2019-01-16T19:04:08.124Z,23.67
2019-01-16T19:09:32.723Z,24.40
2019-01-16T19:14:43.537Z,24.57
2019-01-16T19:20:04.641Z,23.77
2019-01-16T19:25:19.605Z,23.90
2019-01-16T19:30:51.096Z,25.00
2019-01-16T19:36:06.704Z,23.57
2019-01-16T19:41:28.820Z,28.03
2019-01-16T19:47:04.204Z,27.23
2019-01-16T19:52:19.787Z,24.53
2019-01-16T19:57:53.395Z,24.53
2019-01-16T20:03:20.959Z,23.97
2019-01-16T20:08:44.173Z,23.47
2019-01-16T20:14:02.994Z,24.67
2019-01-16T20:19:27.929Z,23.73
2019-01-16T20:24:53.377Z,22.67
2019-01-16T20:30:18.148Z,22.90
2019-01-16T20:35:45.728Z,21.57
2019-01-16T20:41:05.016Z,20.80
2019-01-16T20:46:44.327Z,18.60
2019-01-16T20:52:20.261Z,18.37
2019-01-16T20:57:46.943Z,20.70
2019-01-16T21:03:08.221Z,18.30
2019-01-16T21:08:49.434Z,16.80
2019-01-16T21:14:02.986Z,16.80
2019-01-16T21:19:25.098Z,17.57
2019-01-16T21:24:51.410Z,15.57
2019-01-16T21:30:15.025Z,16.70
2019-01-16T21:35:45.705Z,16.73
2019-01-16T21:41:06.439Z,18.10
2019-01-16T21:46:28.386Z,20.53
2019-01-16T21:51:42.260Z,20.03
2019-01-16T21:57:03.255Z,23.30
2019-01-16T22:02:22.970Z,23.17
2019-01-16T22:07:41.899Z,23.37
2019-01-16T22:13:02.876Z,23.47
2019-01-16T22:18:20.894Z,23.37
2019-01-16T22:23:47.002Z,22.30
2019-01-16T22:29:06.123Z,22.83
2019-01-16T22:34:22.346Z,23.43
2019-01-16T22:39:52.476Z,25.50
2019-01-16T22:45:20.337Z,25.37
2019-01-16T22:50:38.402Z,27.07
2019-01-16T22:56:10.165Z,27.90
2019-01-16T23:01:42.542Z,28.50
2019-01-16T23:07:02.242Z,26.50
2019-01-16T23:12:23.471Z,22.60
2019-01-16T23:17:48.587Z,25.23
2019-01-16T23:22:59.085Z,26.03
2019-01-16T23:28:19.800Z,23.03
2019-01-16T23:33:51.172Z,24.93
2019-01-16T23:39:16.702Z,20.87
2019-01-16T23:44:31.164Z,23.00
2019-01-16T23:49:59.785Z,22.70
2019-01-16T23:55:22.048Z,21.03
